Flight Track Log - Related Links

Times and Time Zones

All times are in EDT time to prevent confusion due to time zone crossing. See the RPA3253 flight status page for this flight to view local times or setup timezone preferences in your user account.


Time Position Orientation Groundspeed Altitude Reporting Facility
EDT Latitude Longitude Course Direction KTS MPH feet Rate Location/Type
Sun 10:52:38 PM 35.1933 -80.9533 249° West 149 171 1,400  Level Atlanta Center
Sun 10:54:00 PM 35.2438 -81.2265 199° South  Level FlightAware Approximate
Sun 10:54:15 PM 35.1231 -80.9814 198° South 245 282 3,700  Level Atlanta Center
Sun 10:55:00 PM 35.1268 -81.2725 192° South  Level FlightAware Approximate
Sun 10:55:20 PM 35.1044 -81.0683 255° West 277 319 6,200  Level Atlanta Center
Sun 10:56:00 PM 35.0574 -81.3740 251° West  Level FlightAware Approximate
Sun 10:56:20 PM 35.0878 -81.1553 257° West 277 319 8,800  Level Atlanta Center
Sun 10:57:00 PM 35.0093 -81.5121 246° West  Level FlightAware Approximate
Sun 10:57:20 PM 35.0650 -81.2550 254° West 272 313 11,400  Level Atlanta Center
Sun 10:58:00 PM 34.9626 -81.6509 249° West  Level FlightAware Approximate
Sun 10:58:20 PM 35.0461 -81.3469 256° West 281 323 13,600  Level Atlanta Center
Sun 10:59:20 PM 35.0275 -81.4492 257° West 296 341 16,200 2,450 Climbing Atlanta Center
Sun 11:00:20 PM 35.0044 -81.5511 255° West 303 349 18,500 2,150 Climbing Atlanta Center
Sun 11:01:20 PM 34.9772 -81.6533 252° West 308 354 20,500 1,950 Climbing Atlanta Center
Sun 11:02:20 PM 34.9458 -81.7556 249° West 321 369 22,400 1,700 Climbing Atlanta Center
Sun 11:03:20 PM 34.9039 -81.8556 243° Southwest 331 381 23,900 1,450 Climbing Atlanta Center
Sun 11:04:20 PM 34.8553 -81.9403 235° Southwest 341 392 25,300 1,300 Climbing Atlanta Center
Sun 11:05:20 PM 34.8006 -82.0378 236° Southwest 349 402 26,500 1,200 Climbing Atlanta Center
Sun 11:06:20 PM 34.7436 -82.1353 235° Southwest 361 415 27,700 1,250 Climbing Atlanta Center
Sun 11:07:20 PM 34.6867 -82.2353 235° Southwest 361 415 29,000 1,450 Climbing Atlanta Center
Sun 11:08:20 PM 34.6297 -82.3372 236° Southwest 366 421 30,600 1,450 Climbing Atlanta Center
Sun 11:09:20 PM 34.5769 -82.4342 237° Southwest 361 415 31,900 700 Climbing Atlanta Center
Sun 11:10:20 PM 34.5136 -82.5414 234° Southwest 361 415 32,000 50 Climbing Atlanta Center
Sun 11:11:20 PM 34.4561 -82.6356 233° Southwest 361 415 32,000  Level Atlanta Center
Sun 11:12:20 PM 34.4008 -82.7322 235° Southwest 361 415 32,000  Level Atlanta Center
Sun 11:13:20 PM 34.3456 -82.8261 235° Southwest 355 409 32,000  Level Atlanta Center
Sun 11:14:20 PM 34.2900 -82.9225 235° Southwest 355 409 32,000  Level Atlanta Center
Sun 11:15:20 PM 34.2428 -83.0061 236° Southwest 350 403 32,000  Level Atlanta Center
Sun 11:16:20 PM 34.1850 -83.1022 234° Southwest 350 403 32,000 250 Level Atlanta Center
Sun 11:17:20 PM 34.1317 -83.1931 235° Southwest 350 403 32,500 450 Climbing Atlanta Center
Sun 11:18:20 PM 34.0800 -83.2914 238° Southwest 350 403 32,900 250 Climbing Atlanta Center
Sun 11:19:20 PM 34.0158 -83.3897 232° Southwest 368 423 33,000 150 Climbing Atlanta Center
Sun 11:20:20 PM 33.9558 -83.4953 236° Southwest 379 436 33,200 400 Climbing Atlanta Center
Sun 11:21:20 PM 33.8853 -83.6133 234° Southwest 391 450 33,800 400 Climbing Atlanta Center
Sun 11:22:20 PM 33.8231 -83.7186 235° Southwest 401 461 34,000 100 Climbing Atlanta Center
Sun 11:23:20 PM 33.7606 -83.8214 234° Southwest 401 461 34,000  Level Atlanta Center
Sun 11:24:20 PM 33.7003 -83.9239 235° Southwest 385 443 34,000  Level Atlanta Center
Sun 11:25:20 PM 33.6397 -84.0264 235° Southwest 385 443 34,000  Level Atlanta Center
Sun 11:26:20 PM 33.5772 -84.1286 234° Southwest 385 443 34,000  Level Atlanta Center
Sun 11:27:20 PM 33.5144 -84.2331 234° Southwest 385 443 34,000  Level Atlanta Center
Sun 11:28:20 PM 33.4619 -84.3253 236° Southwest 385 443 34,000  Level Atlanta Center
Sun 11:29:20 PM 33.3992 -84.4269 234° Southwest 380 437 34,000  Level Atlanta Center
Sun 11:30:20 PM 33.3383 -84.5286 234° Southwest 380 437 34,000  Level Atlanta Center
Sun 11:31:20 PM 33.2772 -84.6303 234° Southwest 380 437 34,000  Level Atlanta Center
Sun 11:32:20 PM 33.2142 -84.7317 233° Southwest 380 437 34,000  Level Atlanta Center
Sun 11:33:20 PM 33.1486 -84.8428 235° Southwest 380 437 34,000  Level Atlanta Center
Sun 11:34:20 PM 33.0875 -84.9414 234° Southwest 375 432 34,000  Level Atlanta Center
Sun 11:35:20 PM 33.0261 -85.0397 233° Southwest 380 437 34,000  Level Atlanta Center
Sun 11:36:20 PM 32.9647 -85.1406 234° Southwest 380 437 34,000  Level Atlanta Center
Sun 11:37:20 PM 32.9097 -85.2264 233° Southwest 375 432 34,000  Level Atlanta Center
Sun 11:38:20 PM 32.8483 -85.3247 233° Southwest 381 438 34,000  Level Atlanta Center
Sun 11:39:20 PM 32.7844 -85.4250 233° Southwest 381 438 34,000  Level Atlanta Center
Sun 11:40:20 PM 32.7250 -85.5278 236° Southwest 381 438 34,000  Level Atlanta Center
Sun 11:41:20 PM 32.6589 -85.6253 231° Southwest 376 433 34,000  Level Atlanta Center
Sun 11:42:20 PM 32.5992 -85.7228 234° Southwest 376 433 34,000  Level Atlanta Center
Sun 11:43:20 PM 32.5353 -85.8275 234° Southwest 381 438 34,000  Level Atlanta Center
Sun 11:44:20 PM 32.4667 -85.9369 233° Southwest 381 438 34,000  Level Atlanta Center
Sun 11:45:20 PM 32.4006 -86.0364 232° Southwest 387 445 34,000  Level Atlanta Center
Sun 11:46:20 PM 32.3383 -86.1358 233° Southwest 387 445 34,000  Level Atlanta Center
Sun 11:47:20 PM 32.2781 -86.2328 234° Southwest 382 440 34,000  Level Atlanta Center
Sun 11:48:20 PM 32.2136 -86.3392 234° Southwest 382 440 34,000  Level Atlanta Center
Sun 11:49:20 PM 32.1600 -86.4211 232° Southwest 382 440 34,000  Level Atlanta Center
Sun 11:50:20 PM 32.0933 -86.5150 230° Southwest 377 434 34,000  Level Atlanta Center
Sun 11:51:20 PM 32.0247 -86.6061 228° Southwest 377 434 34,000  Level Atlanta Center
Sun 11:52:20 PM 31.9453 -86.7067 227° Southwest 377 434 34,000  Level Atlanta Center
Sun 11:53:20 PM 31.8808 -86.7978 230° Southwest 382 440 34,000  Level Atlanta Center
Sun 11:54:20 PM 31.8139 -86.8886 229° Southwest 382 440 34,000  Level Atlanta Center
Sun 11:55:20 PM 31.7492 -86.9817 231° Southwest 372 428 34,000  Level Atlanta Center
Sun 11:56:20 PM 31.6953 -87.0508 228° Southwest 372 428 34,000  Level Atlanta Center
Sun 11:57:20 PM 31.6261 -87.1533 232° Southwest 372 428 34,000  Level Atlanta Center
Sun 11:58:32 PM 31.5472 -87.2522 227° Southwest 362 417 34,000  Level Houston Center
Sun 11:59:33 PM 31.4806 -87.3428 229° Southwest 365 420 34,000  Level Houston Center
Mon 12:00:34 AM 31.3994 -87.4528 229° Southwest 370 426 34,000  Level Houston Center
Mon 12:01:34 AM 31.3339 -87.5436 230° Southwest 367 422 34,000  Level Houston Center
Mon 12:02:35 AM 31.2661 -87.6339 229° Southwest 368 423 34,000  Level Houston Center
Mon 12:03:36 AM 31.1994 -87.7247 229° Southwest 364 419 34,000  Level Houston Center
Mon 12:04:36 AM 31.1322 -87.8150 229° Southwest 367 422 34,000  Level Houston Center
Mon 12:05:37 AM 31.0639 -87.9036 228° Southwest 367 422 34,000  Level Houston Center
Mon 12:06:38 AM 30.9992 -87.9936 230° Southwest 365 420 34,000  Level Houston Center
Mon 12:07:38 AM 30.9331 -88.0803 228° Southwest 360 414 34,000  Level Houston Center
Mon 12:08:39 AM 30.8667 -88.1683 229° Southwest 362 417 34,000 -197 Level Houston Center
Mon 12:09:40 AM 30.8025 -88.2572 230° Southwest 358 412 33,600 -942 Descending Houston Center
Mon 12:10:40 AM 30.7644 -88.3581 246° West 341 392 32,100 -1,488 Descending Houston Center
Mon 12:11:41 AM 30.7281 -88.4525 246° West 322 371 30,600 -1,475 Descending Houston Center
Mon 12:12:42 AM 30.6881 -88.5500 245° Southwest 315 362 29,100 -1,438 Descending Houston Center
Mon 12:13:42 AM 30.6522 -88.6397 245° Southwest 307 353 27,700 -1,388 Descending Houston Center
Mon 12:14:43 AM 30.6175 -88.7272 245° Southwest 299 344 26,300 -1,438 Descending Houston Center
Mon 12:15:43 AM 30.5836 -88.8119 245° Southwest 291 335 24,800 -1,537 Descending Houston Center
Mon 12:16:44 AM 30.5489 -88.8975 245° Southwest 292 336 23,200 -1,525 Descending Houston Center
Mon 12:17:45 AM 30.5183 -88.9769 246° West 290 334 21,700 -1,537 Descending Houston Center
Mon 12:18:45 AM 30.4850 -89.0572 244° Southwest 279 321 20,100 -1,488 Descending Houston Center
Mon 12:19:46 AM 30.4547 -89.1361 246° West 270 311 18,700 -1,377 Descending Houston Center
Mon 12:20:47 AM 30.4231 -89.2128 244° Southwest 264 304 17,300 -1,388 Descending Houston Center
Mon 12:21:47 AM 30.3936 -89.2858 245° Southwest 253 291 15,900 -1,625 Descending Houston Center
Mon 12:22:23 AM 30.3717 -89.3461 247° West 249 287 14,700 -1,967 Descending Houston Center
Mon 12:22:48 AM 30.3581 -89.3747 241° Southwest 252 290 13,900 -1,770 Descending Houston Center
Mon 12:23:24 AM 30.3411 -89.4200 247° West 257 296 12,900 -1,869 Descending Houston Center
Mon 12:23:49 AM 30.3269 -89.4503 242° Southwest 258 297 12,000 -1,770 Descending Houston Center
Mon 12:24:25 AM 30.3083 -89.4986 246° West 267 307 11,100 -1,000 Descending Houston Center
Mon 12:24:49 AM 30.2956 -89.5275 243° Southwest 263 303 11,000  Descending Houston Center
Mon 12:25:25 AM 30.2794 -89.5700 246° West 250 288 11,100 -197 Climbing Houston Center
Mon 12:25:50 AM 30.2669 -89.5986 243° Southwest 248 285 10,800 -1,082 Descending Houston Center
Mon 12:26:26 AM 30.2506 -89.6386 245° Southwest 237 273 10,000 -1,500 Descending Houston Center
Mon 12:26:50 AM 30.2378 -89.6689 244° Southwest 242 278 9,300 -1,475 Descending Houston Center
Mon 12:27:27 AM 30.2217 -89.7097 245° Southwest 240 276 8,500 -1,475 Descending Houston Center
Mon 12:27:51 AM 30.2106 -89.7403 247° West 240 276 7,800 -1,400 Descending Houston Center
Mon 12:28:27 AM 30.2014 -89.7831 256° West 238 274 7,100 -1,279 Descending Houston Center
Mon 12:28:52 AM 30.1928 -89.8144 252° West 238 274 6,500 -1,377 Descending Houston Center
Mon 12:29:28 AM 30.1808 -89.8583 253° West 233 268 5,700 -1,500 Descending Houston Center
Mon 12:29:52 AM 30.1736 -89.8867 254° West 235 270 5,000 -1,400 Descending Houston Center
Mon 12:30:28 AM 30.1622 -89.9314 254° West 232 267 4,300 -1,082 Descending Houston Center
Mon 12:30:53 AM 30.1542 -89.9583 251° West 233 268 3,900 -197 Descending Houston Center
Mon 12:31:29 AM 30.1417 -89.9997 251° West 230 265 4,100  Climbing Houston Center
Mon 12:31:53 AM 30.1361 -90.0269 257° West 230 265 3,900 -885 Descending Houston Center
Mon 12:32:30 AM 30.1247 -90.0653 251° West 215 247 3,200 -1,377 Descending Houston Center
Mon 12:32:54 AM 30.1186 -90.0925 255° West 222 255 2,500 -778 Descending Houston Center
Mon 12:33:24 AM 30.1100 -90.1236 252° West 198 228 2,500 -492 Level Houston Center
Mon 12:33:55 AM 30.1069 -90.1456 261° West 193 222 2,000 -358 Descending Houston Center
Mon 12:34:31 AM 30.0989 -90.1719 251° West 136 157 2,100 -200 Climbing Houston Center
Mon 12:34:55 AM 30.0981 -90.1919 267° West 162 186 1,800 -500 Descending Houston Center
Mon 12:35:31 AM 30.0856 -90.2111 233° Southwest 129 148 1,600 -492 Descending Houston Center
Mon 12:35:56 AM 30.0767 -90.2211 224° Southwest 140 161 1,300 -393 Descending Houston Center
Mon 12:36:32 AM 30.0525 -90.2292 196° South 121 139 1,200 -500 Descending Houston Center
Mon 12:36:56 AM 30.0436 -90.2344 207° Southwest 131 151 800 -716 Descending Houston Center
Mon 12:37:39 AM 30.0175 -90.2403 191° South 130 150 400 -393 Descending Houston Center
Mon 12:37:57 AM 30.0150 -90.2447 237° Southwest 127 146 400  Level Houston Center
Mon 12:39:00 AM 29.9934 -90.2580 245° Southwest  Level Estimated

Login

Don't have an account? Register now (free) for customized features, flight alerts, and more!